Wetterdaten: Woche 05.06.17 - 11.06.17 (KW23)
Datum Zeit Temperatur Luftfeuchte Luftdruck Niederschlag Windrichtung Sonnenschein Solar Wind
05.06.2017 00:00 13,5 C 86 % 1013,0 hPa 0,0 l/m N 0,00 h 0 W/m 1,6 km/h (1 Bft)
05.06.2017 01:00 13,5 C 88 % 1013,1 hPa 0,0 l/m NO 0,00 h 0 W/m 3,1 km/h (1 Bft)
05.06.2017 02:00 13,5 C 87 % 1012,5 hPa 0,0 l/m N-NO 0,00 h 0 W/m 8,4 km/h (2 Bft)
05.06.2017 03:00 13,2 C 86 % 1012,0 hPa 0,0 l/m NO 0,00 h 0 W/m 5,0 km/h (1 Bft)
05.06.2017 04:00 13,0 C 87 % 1011,7 hPa 0,0 l/m N-NO 0,00 h 0 W/m 9,5 km/h (2 Bft)
05.06.2017 05:00 12,8 C 88 % 1012,1 hPa 0,8 l/m N-NO 0,00 h 0 W/m 5,3 km/h (1 Bft)
05.06.2017 06:00 12,2 C 91 % 1012,4 hPa 1,8 l/m N-NO 0,00 h 7 W/m 7,9 km/h (2 Bft)
05.06.2017 07:00 12,0 C 95 % 1012,0 hPa 1,0 l/m N-NO 0,00 h 64 W/m 10,6 km/h (2 Bft)
05.06.2017 08:00 12,4 C 96 % 1012,3 hPa 0,0 l/m N-NO 0,00 h 164 W/m 6,2 km/h (2 Bft)
05.06.2017 09:00 13,4 C 94 % 1012,2 hPa 0,0 l/m N-NO 0,08 h 234 W/m 7,9 km/h (2 Bft)
05.06.2017 10:00 14,7 C 90 % 1012,0 hPa 0,0 l/m N-NO 0,08 h 332 W/m 5,3 km/h (1 Bft)
05.06.2017 11:00 15,0 C 88 % 1011,6 hPa 0,0 l/m N-NO 0,00 h 160 W/m 5,2 km/h (1 Bft)
05.06.2017 12:00 15,2 C 90 % 1011,4 hPa 0,2 l/m N-NO 0,00 h 240 W/m 3,9 km/h (1 Bft)
05.06.2017 13:00 15,2 C 90 % 1011,1 hPa 0,0 l/m N-NO 0,00 h 167 W/m 8,1 km/h (2 Bft)
05.06.2017 14:00 15,3 C 89 % 1011,0 hPa 0,0 l/m N-NO 0,00 h 135 W/m 4,5 km/h (1 Bft)
05.06.2017 15:00 15,6 C 88 % 1010,9 hPa 0,0 l/m N 0,00 h 207 W/m 0,7 km/h (0 Bft)
05.06.2017 16:00 15,5 C 89 % 1010,8 hPa 0,4 l/m N 0,00 h 169 W/m 0,3 km/h (0 Bft)
05.06.2017 17:00 15,7 C 91 % 1010,6 hPa 0,0 l/m N 0,42 h 280 W/m 0,8 km/h (0 Bft)
05.06.2017 18:00 16,5 C 86 % 1010,1 hPa 0,0 l/m N 0,50 h 266 W/m 2,4 km/h (1 Bft)
05.06.2017 19:00 16,0 C 89 % 1010,0 hPa 0,0 l/m NW 0,08 h 93 W/m 3,2 km/h (1 Bft)
05.06.2017 20:00 15,2 C 92 % 1009,7 hPa 0,0 l/m W-NW 0,08 h 27 W/m 1,7 km/h (1 Bft)
05.06.2017 21:00 13,7 C 95 % 1009,5 hPa 0,0 l/m N 0,00 h 7 W/m 0,0 km/h (0 Bft)
05.06.2017 22:00 13,0 C 97 % 1009,4 hPa 0,0 l/m N 0,00 h 0 W/m 0,0 km/h (0 Bft)
05.06.2017 23:00 12,8 C 97 % 1009,0 hPa 0,0 l/m N 0,00 h 0 W/m 0,1 km/h (0 Bft)
06.06.2017 00:00 12,1 C 97 % 1008,3 hPa 0,0 l/m N 0,00 h 0 W/m 0,0 km/h (0 Bft)
06.06.2017 01:00 11,8 C 97 % 1007,4 hPa 0,0 l/m N 0,00 h 0 W/m 0,0 km/h (0 Bft)
06.06.2017 02:00 11,4 C 97 % 1006,5 hPa 0,0 l/m N 0,00 h 0 W/m 0,0 km/h (0 Bft)
06.06.2017 03:00 10,8 C 97 % 1005,7 hPa 0,0 l/m N 0,00 h 0 W/m 0,0 km/h (0 Bft)
06.06.2017 04:00 10,3 C 97 % 1004,9 hPa 0,0 l/m W-NW 0,00 h 0 W/m 2,5 km/h (1 Bft)
06.06.2017 05:00 9,5 C 97 % 1004,6 hPa 0,0 l/m N 0,00 h 15 W/m 1,5 km/h (1 Bft)
06.06.2017 06:00 9,7 C 98 % 1004,4 hPa 0,0 l/m N 0,00 h 27 W/m 0,3 km/h (0 Bft)
06.06.2017 07:00 10,4 C 98 % 1004,6 hPa 0,2 l/m N 0,00 h 58 W/m 0,3 km/h (0 Bft)
06.06.2017 08:00 11,7 C 99 % 1004,8 hPa 1,8 l/m W 0,00 h 88 W/m 3,1 km/h (1 Bft)
06.06.2017 09:00 12,7 C 99 % 1004,6 hPa 0,8 l/m S-SW 0,00 h 151 W/m 9,1 km/h (2 Bft)
06.06.2017 10:00 13,9 C 99 % 1004,7 hPa 0,0 l/m SW 0,00 h 258 W/m 16,9 km/h (3 Bft)
06.06.2017 11:00 14,5 C 98 % 1004,7 hPa 0,0 l/m SW 0,00 h 138 W/m 14,5 km/h (3 Bft)
06.06.2017 12:00 14,9 C 97 % 1004,5 hPa 0,4 l/m S-SW 0,25 h 287 W/m 16,0 km/h (3 Bft)
06.06.2017 13:00 14,7 C 95 % 1004,7 hPa 0,2 l/m W-SW 0,00 h 104 W/m 15,8 km/h (3 Bft)
06.06.2017 14:00 13,3 C 93 % 1005,3 hPa 1,0 l/m W-SW 0,00 h 55 W/m 18,6 km/h (3 Bft)
06.06.2017 15:00 13,1 C 94 % 1005,7 hPa 0,0 l/m W-SW 0,00 h 182 W/m 17,2 km/h (3 Bft)
06.06.2017 16:00 13,1 C 94 % 1006,3 hPa 0,0 l/m SW 0,00 h 172 W/m 19,8 km/h (4 Bft)
06.06.2017 17:00 13,0 C 93 % 1007,3 hPa 0,2 l/m SW 0,00 h 109 W/m 23,5 km/h (4 Bft)
06.06.2017 18:00 12,9 C 91 % 1007,9 hPa 0,0 l/m W-SW 0,00 h 97 W/m 18,2 km/h (3 Bft)
06.06.2017 19:00 12,7 C 88 % 1008,5 hPa 0,2 l/m W-SW 0,50 h 138 W/m 22,8 km/h (4 Bft)
06.06.2017 20:00 11,6 C 91 % 1009,3 hPa 0,0 l/m SW 0,00 h 30 W/m 11,3 km/h (2 Bft)
06.06.2017 21:00 10,6 C 84 % 1010,9 hPa 0,0 l/m W-NW 0,00 h 6 W/m 12,6 km/h (3 Bft)
06.06.2017 22:00 9,7 C 84 % 1011,7 hPa 0,0 l/m W 0,00 h 0 W/m 5,2 km/h (1 Bft)
06.06.2017 23:00 9,5 C 84 % 1012,2 hPa 0,2 l/m W 0,00 h 0 W/m 13,2 km/h (3 Bft)
07.06.2017 00:00 9,4 C 86 % 1012,4 hPa 0,0 l/m W 0,00 h 0 W/m 9,5 km/h (2 Bft)
07.06.2017 01:00 9,0 C 88 % 1012,7 hPa 0,0 l/m W-SW 0,00 h 0 W/m 11,5 km/h (2 Bft)
07.06.2017 02:00 9,3 C 88 % 1013,1 hPa 0,0 l/m W-SW 0,00 h 0 W/m 20,0 km/h (4 Bft)
07.06.2017 03:00 9,5 C 87 % 1013,3 hPa 0,0 l/m W-SW 0,00 h 0 W/m 19,0 km/h (3 Bft)
07.06.2017 04:00 9,2 C 88 % 1013,6 hPa 0,0 l/m W-SW 0,00 h 0 W/m 15,3 km/h (3 Bft)
07.06.2017 05:00 8,9 C 89 % 1014,0 hPa 0,0 l/m W-SW 0,00 h 5 W/m 16,6 km/h (3 Bft)
07.06.2017 06:00 8,9 C 92 % 1014,5 hPa 0,2 l/m SW 0,00 h 23 W/m 14,9 km/h (3 Bft)
07.06.2017 07:00 8,9 C 94 % 1015,2 hPa 0,4 l/m W-SW 0,00 h 97 W/m 19,6 km/h (3 Bft)
07.06.2017 08:00 9,6 C 90 % 1015,4 hPa 0,0 l/m SW 0,33 h 329 W/m 28,3 km/h (4 Bft)
07.06.2017 09:00 10,7 C 83 % 1016,0 hPa 0,0 l/m W-SW 0,17 h 206 W/m 27,2 km/h (4 Bft)
07.06.2017 10:00 11,3 C 81 % 1016,4 hPa 0,2 l/m W 0,42 h 552 W/m 24,4 km/h (4 Bft)
07.06.2017 11:00 12,6 C 72 % 1016,5 hPa 0,0 l/m W-SW 0,25 h 387 W/m 26,9 km/h (4 Bft)
07.06.2017 12:00 13,4 C 71 % 1016,9 hPa 0,0 l/m W 0,75 h 811 W/m 24,9 km/h (4 Bft)
07.06.2017 13:00 12,7 C 72 % 1017,2 hPa 0,2 l/m W 0,58 h 716 W/m 32,6 km/h (5 Bft)
07.06.2017 14:00 15,1 C 57 % 1017,4 hPa 0,0 l/m W-SW 0,83 h 839 W/m 36,2 km/h (5 Bft)
07.06.2017 15:00 15,8 C 53 % 1017,7 hPa 0,0 l/m W 0,50 h 605 W/m 31,0 km/h (5 Bft)
07.06.2017 16:00 15,4 C 56 % 1018,0 hPa 0,0 l/m W-SW 0,25 h 403 W/m 22,5 km/h (4 Bft)
07.06.2017 17:00 15,4 C 53 % 1018,4 hPa 0,0 l/m W-NW 0,58 h 397 W/m 28,2 km/h (4 Bft)
07.06.2017 18:00 15,8 C 52 % 1018,4 hPa 0,0 l/m W-SW 1,00 h 364 W/m 26,8 km/h (4 Bft)
07.06.2017 19:00 14,8 C 51 % 1018,7 hPa 0,0 l/m W-SW 0,83 h 177 W/m 19,8 km/h (4 Bft)
07.06.2017 20:00 13,3 C 59 % 1019,2 hPa 0,0 l/m W-SW 0,00 h 34 W/m 14,2 km/h (3 Bft)
07.06.2017 21:00 11,7 C 65 % 1019,8 hPa 0,0 l/m W-SW 0,08 h 8 W/m 5,8 km/h (2 Bft)
07.06.2017 22:00 9,6 C 76 % 1020,5 hPa 0,0 l/m N 0,00 h 0 W/m 0,5 km/h (0 Bft)
07.06.2017 23:00 8,1 C 84 % 1020,7 hPa 0,0 l/m N 0,00 h 0 W/m 0,0 km/h (0 Bft)
08.06.2017 00:00 7,3 C 86 % 1020,6 hPa 0,0 l/m N 0,00 h 0 W/m 0,0 km/h (0 Bft)
08.06.2017 01:00 6,5 C 87 % 1020,8 hPa 0,0 l/m N 0,00 h 0 W/m 0,0 km/h (0 Bft)
08.06.2017 02:00 5,8 C 90 % 1020,8 hPa 0,0 l/m N 0,00 h 0 W/m 0,0 km/h (0 Bft)
08.06.2017 03:00 5,4 C 91 % 1020,8 hPa 0,0 l/m N 0,00 h 0 W/m 0,0 km/h (0 Bft)
08.06.2017 04:00 5,0 C 92 % 1020,8 hPa 0,0 l/m N 0,00 h 0 W/m 0,0 km/h (0 Bft)
08.06.2017 05:00 4,6 C 93 % 1020,6 hPa 0,0 l/m N 0,42 h 19 W/m 0,0 km/h (0 Bft)
08.06.2017 06:00 5,4 C 94 % 1020,5 hPa 0,0 l/m N 0,83 h 107 W/m 0,0 km/h (0 Bft)
08.06.2017 07:00 8,5 C 90 % 1020,3 hPa 0,0 l/m N 0,83 h 263 W/m 0,0 km/h (0 Bft)
08.06.2017 08:00 11,8 C 78 % 1020,1 hPa 0,0 l/m N 1,00 h 391 W/m 1,1 km/h (0 Bft)
08.06.2017 09:00 14,1 C 67 % 1019,9 hPa 0,0 l/m W-SW 1,00 h 479 W/m 2,0 km/h (1 Bft)
08.06.2017 10:00 15,2 C 59 % 1019,6 hPa 0,0 l/m W-SW 0,92 h 515 W/m 5,6 km/h (1 Bft)
08.06.2017 11:00 16,7 C 57 % 1019,3 hPa 0,0 l/m S-SO 1,00 h 774 W/m 7,6 km/h (2 Bft)
08.06.2017 12:00 18,0 C 54 % 1018,7 hPa 0,0 l/m S-SW 1,00 h 829 W/m 6,6 km/h (2 Bft)
08.06.2017 13:00 19,7 C 50 % 1018,1 hPa 0,0 l/m S-SO 1,00 h 898 W/m 7,4 km/h (2 Bft)
08.06.2017 14:00 20,6 C 40 % 1017,5 hPa 0,0 l/m S 1,00 h 686 W/m 6,0 km/h (2 Bft)
08.06.2017 15:00 21,8 C 34 % 1017,1 hPa 0,0 l/m SW 1,00 h 800 W/m 8,8 km/h (2 Bft)
08.06.2017 16:00 22,9 C 32 % 1016,6 hPa 0,0 l/m S-SW 1,00 h 666 W/m 9,1 km/h (2 Bft)
08.06.2017 17:00 23,2 C 32 % 1015,9 hPa 0,0 l/m SW 1,00 h 513 W/m 5,9 km/h (2 Bft)
08.06.2017 18:00 23,0 C 34 % 1015,4 hPa 0,0 l/m SW 1,00 h 352 W/m 4,3 km/h (1 Bft)
08.06.2017 19:00 22,0 C 37 % 1015,4 hPa 0,0 l/m N 0,83 h 173 W/m 2,1 km/h (1 Bft)
08.06.2017 20:00 18,8 C 57 % 1015,2 hPa 0,0 l/m N 0,00 h 31 W/m 0,0 km/h (0 Bft)
08.06.2017 21:00 15,5 C 63 % 1015,1 hPa 0,0 l/m N 0,00 h 7 W/m 1,1 km/h (0 Bft)
08.06.2017 22:00 13,8 C 66 % 1015,5 hPa 0,0 l/m N 0,00 h 0 W/m 0,3 km/h (0 Bft)
08.06.2017 23:00 12,4 C 71 % 1015,1 hPa 0,0 l/m N 0,00 h 0 W/m 0,0 km/h (0 Bft)
09.06.2017 00:00 11,7 C 76 % 1014,6 hPa 0,0 l/m N 0,00 h 0 W/m 0,1 km/h (0 Bft)
09.06.2017 01:00 10,6 C 81 % 1013,9 hPa 0,0 l/m N 0,00 h 0 W/m 0,3 km/h (0 Bft)
09.06.2017 02:00 10,1 C 82 % 1013,3 hPa 0,0 l/m N 0,00 h 0 W/m 0,0 km/h (0 Bft)
09.06.2017 03:00 9,6 C 82 % 1012,9 hPa 0,0 l/m N 0,00 h 0 W/m 0,0 km/h (0 Bft)
09.06.2017 04:00 9,0 C 83 % 1012,3 hPa 0,0 l/m N 0,00 h 0 W/m 0,0 km/h (0 Bft)
09.06.2017 05:00 8,4 C 84 % 1011,8 hPa 0,0 l/m W-SW 0,33 h 19 W/m 1,6 km/h (1 Bft)
09.06.2017 06:00 9,0 C 86 % 1011,7 hPa 0,0 l/m N 0,50 h 90 W/m 1,5 km/h (1 Bft)
09.06.2017 07:00 12,1 C 81 % 1011,7 hPa 0,0 l/m O-NO 0,83 h 289 W/m 3,1 km/h (1 Bft)
09.06.2017 08:00 15,5 C 74 % 1011,7 hPa 0,0 l/m O-NO 1,00 h 447 W/m 4,0 km/h (1 Bft)
09.06.2017 09:00 18,7 C 66 % 1012,3 hPa 0,0 l/m SW 0,92 h 564 W/m 13,0 km/h (3 Bft)
09.06.2017 10:00 19,8 C 66 % 1012,7 hPa 0,0 l/m SW 0,50 h 410 W/m 16,9 km/h (3 Bft)
09.06.2017 11:00 20,3 C 60 % 1013,0 hPa 0,0 l/m W-SW 0,42 h 489 W/m 28,2 km/h (4 Bft)
09.06.2017 12:00 19,8 C 65 % 1013,2 hPa 0,0 l/m SW 0,08 h 448 W/m 25,2 km/h (4 Bft)
09.06.2017 13:00 20,3 C 66 % 1013,5 hPa 0,0 l/m W-SW 0,67 h 501 W/m 23,1 km/h (4 Bft)
09.06.2017 14:00 20,9 C 67 % 1013,4 hPa 0,0 l/m W-SW 0,08 h 383 W/m 19,2 km/h (3 Bft)
09.06.2017 15:00 21,1 C 67 % 1013,4 hPa 0,0 l/m W-SW 0,17 h 395 W/m 17,8 km/h (3 Bft)
09.06.2017 16:00 21,0 C 67 % 1013,6 hPa 0,0 l/m SW 0,17 h 208 W/m 14,5 km/h (3 Bft)
09.06.2017 17:00 20,0 C 72 % 1013,9 hPa 0,0 l/m SW 0,08 h 161 W/m 5,5 km/h (1 Bft)
09.06.2017 18:00 20,2 C 72 % 1013,6 hPa 0,0 l/m W-SW 0,17 h 207 W/m 8,2 km/h (2 Bft)
09.06.2017 19:00 20,2 C 66 % 1013,7 hPa 0,0 l/m SW 0,33 h 159 W/m 7,8 km/h (2 Bft)
09.06.2017 20:00 18,6 C 70 % 1013,8 hPa 0,0 l/m SW 0,00 h 39 W/m 3,1 km/h (1 Bft)
09.06.2017 21:00 16,8 C 77 % 1014,3 hPa 0,0 l/m N-NW 0,00 h 6 W/m 10,3 km/h (2 Bft)
09.06.2017 22:00 14,3 C 90 % 1015,9 hPa 4,8 l/m N-NW 0,00 h 0 W/m 15,4 km/h (3 Bft)
09.06.2017 23:00 13,5 C 95 % 1015,8 hPa 1,4 l/m N-NW 0,00 h 0 W/m 5,0 km/h (1 Bft)
10.06.2017 00:00 13,5 C 97 % 1016,3 hPa 0,0 l/m N 0,00 h 0 W/m 0,0 km/h (0 Bft)
10.06.2017 01:00 13,2 C 98 % 1016,6 hPa 0,0 l/m N 0,00 h 0 W/m 0,0 km/h (0 Bft)
10.06.2017 02:00 13,2 C 98 % 1017,1 hPa 0,6 l/m N-NW 0,00 h 0 W/m 1,2 km/h (1 Bft)
10.06.2017 03:00 13,0 C 98 % 1017,3 hPa 0,0 l/m N 0,00 h 0 W/m 0,0 km/h (0 Bft)
10.06.2017 04:00 12,5 C 98 % 1017,5 hPa 0,0 l/m N 0,00 h 0 W/m 0,0 km/h (0 Bft)
10.06.2017 05:00 12,4 C 98 % 1017,8 hPa 0,0 l/m N 0,00 h 10 W/m 0,0 km/h (0 Bft)
10.06.2017 06:00 12,4 C 98 % 1018,0 hPa 0,0 l/m N 0,17 h 68 W/m 0,0 km/h (0 Bft)
10.06.2017 07:00 13,4 C 99 % 1018,3 hPa 0,0 l/m N 0,75 h 255 W/m 0,5 km/h (0 Bft)
10.06.2017 08:00 15,8 C 93 % 1018,6 hPa 0,0 l/m N-NW 1,00 h 506 W/m 0,7 km/h (0 Bft)
10.06.2017 09:00 17,1 C 81 % 1018,8 hPa 0,0 l/m NO 0,67 h 498 W/m 6,7 km/h (2 Bft)
10.06.2017 10:00 17,4 C 80 % 1019,0 hPa 0,0 l/m NO 0,17 h 311 W/m 5,2 km/h (1 Bft)
10.06.2017 11:00 19,1 C 71 % 1019,2 hPa 0,0 l/m N-NO 0,83 h 852 W/m 5,2 km/h (1 Bft)
10.06.2017 12:00 20,0 C 64 % 1019,3 hPa 0,0 l/m N 0,58 h 757 W/m 10,3 km/h (2 Bft)
10.06.2017 13:00 21,0 C 59 % 1018,9 hPa 0,0 l/m N 1,00 h 954 W/m 8,6 km/h (2 Bft)
10.06.2017 14:00 22,2 C 55 % 1018,7 hPa 0,0 l/m W-NW 1,00 h 929 W/m 12,2 km/h (2 Bft)
10.06.2017 15:00 22,7 C 52 % 1018,3 hPa 0,0 l/m N-NO 1,00 h 793 W/m 8,6 km/h (2 Bft)
10.06.2017 16:00 23,4 C 46 % 1018,0 hPa 0,0 l/m N 1,00 h 661 W/m 8,6 km/h (2 Bft)
10.06.2017 17:00 23,6 C 46 % 1017,6 hPa 0,0 l/m N 0,92 h 504 W/m 8,0 km/h (2 Bft)
10.06.2017 18:00 23,3 C 47 % 1017,5 hPa 0,0 l/m O-NO 0,67 h 291 W/m 6,8 km/h (2 Bft)
10.06.2017 19:00 22,4 C 50 % 1017,7 hPa 0,0 l/m O 0,83 h 186 W/m 10,5 km/h (2 Bft)
10.06.2017 20:00 20,9 C 56 % 1017,8 hPa 0,0 l/m O 0,00 h 35 W/m 5,2 km/h (1 Bft)
10.06.2017 21:00 17,3 C 74 % 1018,3 hPa 0,0 l/m N 0,08 h 8 W/m 0,0 km/h (0 Bft)
10.06.2017 22:00 15,3 C 80 % 1018,8 hPa 0,0 l/m N 0,00 h 0 W/m 0,0 km/h (0 Bft)
10.06.2017 23:00 14,5 C 83 % 1018,9 hPa 0,0 l/m N 0,00 h 0 W/m 0,1 km/h (0 Bft)
11.06.2017 00:00 13,7 C 85 % 1019,0 hPa 0,0 l/m N 0,00 h 0 W/m 0,0 km/h (0 Bft)
11.06.2017 01:00 13,3 C 86 % 1019,0 hPa 0,0 l/m N 0,00 h 0 W/m 0,3 km/h (0 Bft)
11.06.2017 02:00 12,8 C 87 % 1018,9 hPa 0,0 l/m N 0,00 h 0 W/m 0,1 km/h (0 Bft)
11.06.2017 03:00 12,3 C 88 % 1018,5 hPa 0,0 l/m N 0,00 h 0 W/m 0,0 km/h (0 Bft)
11.06.2017 04:00 11,9 C 89 % 1018,3 hPa 0,0 l/m N 0,00 h 0 W/m 1,5 km/h (1 Bft)
11.06.2017 05:00 11,4 C 89 % 1017,9 hPa 0,0 l/m N 0,42 h 17 W/m 0,0 km/h (0 Bft)
11.06.2017 06:00 11,7 C 91 % 1018,0 hPa 0,0 l/m O-NO 0,92 h 108 W/m 4,6 km/h (1 Bft)
11.06.2017 07:00 14,1 C 86 % 1018,1 hPa 0,0 l/m N 0,83 h 265 W/m 1,2 km/h (1 Bft)
11.06.2017 08:00 17,0 C 78 % 1017,8 hPa 0,0 l/m N 1,00 h 455 W/m 1,6 km/h (1 Bft)
11.06.2017 09:00 20,0 C 71 % 1017,6 hPa 0,0 l/m O-NO 0,75 h 471 W/m 4,4 km/h (1 Bft)
11.06.2017 10:00 22,8 C 64 % 1017,2 hPa 0,0 l/m O 0,92 h 659 W/m 9,4 km/h (2 Bft)
11.06.2017 11:00 24,8 C 54 % 1016,7 hPa 0,0 l/m O 1,00 h 799 W/m 14,4 km/h (3 Bft)
11.06.2017 12:00 26,2 C 49 % 1016,1 hPa 0,0 l/m O 1,00 h 883 W/m 14,5 km/h (3 Bft)
11.06.2017 13:00 27,6 C 41 % 1015,5 hPa 0,0 l/m O 1,00 h 896 W/m 14,0 km/h (3 Bft)
11.06.2017 14:00 28,3 C 40 % 1014,8 hPa 0,0 l/m O-NO 1,00 h 846 W/m 14,0 km/h (3 Bft)
11.06.2017 15:00 29,0 C 40 % 1014,0 hPa 0,0 l/m O-NO 1,00 h 776 W/m 13,7 km/h (3 Bft)
11.06.2017 16:00 29,6 C 38 % 1013,3 hPa 0,0 l/m O 1,00 h 655 W/m 12,8 km/h (3 Bft)
11.06.2017 17:00 29,7 C 37 % 1012,6 hPa 0,0 l/m NO 1,00 h 512 W/m 11,4 km/h (2 Bft)
11.06.2017 18:00 29,3 C 37 % 1012,3 hPa 0,0 l/m O-NO 0,92 h 333 W/m 8,3 km/h (2 Bft)
11.06.2017 19:00 26,4 C 53 % 1012,1 hPa 0,0 l/m N 0,00 h 114 W/m 1,2 km/h (1 Bft)
11.06.2017 20:00 23,5 C 67 % 1012,0 hPa 0,0 l/m N 0,17 h 40 W/m 0,0 km/h (0 Bft)
11.06.2017 21:00 21,9 C 70 % 1012,1 hPa 0,0 l/m N 0,17 h 14 W/m 0,0 km/h (0 Bft)
11.06.2017 22:00 19,8 C 75 % 1012,3 hPa 0,0 l/m N 0,00 h 0 W/m 0,0 km/h (0 Bft)
11.06.2017 23:00 19,0 C 77 % 1012,2 hPa 0,0 l/m N 0,00 h 0 W/m 0,0 km/h (0 Bft)
Min-Datum _ 08.06.17 08.06.17 06.06.17 - - - - 05.06.17
_ Min-Zeit 05:50 16:20 06:25 - - - - 00:20
Minimum _ 4,4 C 29 % 1004,2 hPa - - - - 0,0 km/h (0 Bft)
Max-Datum _ 11.06.17 06.06.17 08.06.17 09.06.17 - 05.06.17 10.06.17 07.06.17
_ Max-Zeit 16:30 08:00 03:00 22:25 - 09:45 12:25 13:55
Maximum _ 29,8 C 99 % 1021,0 hPa 4,8 l/m - 0,08 h 1132 W/m 48,3 km/h
W (6 Bft)
Durchschnitt _ 15,1 C 77 % 1014,3 hPa #17,0 l/m W-SW #52:25 h 324 W/m 8,0 km/h (2 Bft)